Montana Mines, WV (26586)

10:08 AM EDT on July 21, 2017 (GMT -0400)
East Fairmont | | Change Station

Elev 1004 ft 39.48 °N, 80.13 °W | Updated 58 seconds ago

Overcast
Overcast
82.1 °F
Feels Like 89 °F
N
1.0
Wind Variable Wind from SE
Gusts 3.0 mph

Today
High -- | Low -- °F
--% Chance of Precip.
Yesterday
High -- | Low -- °F
Precip. -- in
Pressure 30.01 in
Visibility 9.0 miles
Clouds Mostly Cloudy 3000 ft
Mostly Cloudy 4000 ft
Overcast 4600 ft
Heat Index 89 °F
Dew Point 75 °F
Humidity 80%
Rainfall 0.00 in
Snow Depth Not available.
6:10 AM 8:42 PM
Waning Crescent, 5% visible
METAR KMGW 211353Z 00000KT 9SM HZ BKN030 BKN040 OVC046 26/22 A3004 RMK AO2 SLP161 T02560217
Pressure 30.01 in
Visibility 9.0 miles
Clouds Mostly Cloudy 3000 ft
Mostly Cloudy 4000 ft
Overcast 4600 ft
Heat Index 89 °F
Dew Point 75 °F
Humidity 80%
Rainfall 0.00 in
Snow Depth Not available.
6:10 AM 8:42 PM
Waning Crescent, 5% visible
METAR KMGW 211353Z 00000KT 9SM HZ BKN030 BKN040 OVC046 26/22 A3004 RMK AO2 SLP161 T02560217

Get Severe Weather Alerts

Thanks for signing up!

Be on the lookout for a verification email in your inbox.

You'll start receiving the daily forecast at 6 AM.

×

10-Day Weather Forecast

Almanac

Astronomy

Jul. 21, 2017 Rise Set
Actual Time
Civil Twilight
Nautical Twilight
Astronomical Twilight
Moon
Length of Visible Light
Length of Day
Tomorrow will be .
, % of the Moon is Illuminated

Today's Extremes

State Highs State Lows

Community

WunderPhotos

Category 6

Welcome to Category 6. This is the collective home for Weather Underground's featured writeups by Dr. Jeff Masters (right), Bob Henson (left), Chris Burt, and other regular contributors.

Nearby

Air Quality

  Air Quality AQ Index Pollutant
Not available.

Snow Depth

Station Depth Elevation

Earthquake Activity

City Distance Mag. Time & Date
Minimum magnitude displayed is 2.5.

Coastal Water Temperatures

Place Temperature

Stations

Nearby Weather Stations

Station Location Temp. Windchill Dew Point Humidity Wind Precip. Elev Updated Type
                   

Watches & Warnings

There are currently no watches in effect.